JST530 YMML-YSSY
Flight info
| Callsign | JST530 |
|---|---|
| Flight time | 1h 10m |
| Altitude | 35000 |
| Route | ML H129 DOSEL Y59 RIVET |
| Aircraft | A320/M-SDE3FGHIRWY/LB1 |
Departure
| Time | 2026-05-01 10:35 |
|---|---|
| Airport | Melbourne Airport (YMML) |
Arrival
| Time | 2026-05-01 11:45 |
|---|---|
| Airport | Sydney Kingsford Smith International Airport (YSSY) |
| Time | Latitude | Longitude | Altitude | Speed | Heading |
|---|---|---|---|---|---|
| 2026-05-01 09:07 | -37.67610 | 144.84664 | 376 ft | 0 kts | 81° |
| 2026-05-01 10:18 | -37.67610 | 144.84663 | 376 ft | 1 kts | 81° |
| 2026-05-01 10:19 | -37.67614 | 144.84633 | 376 ft | 4 kts | 83° |
| 2026-05-01 10:19 | -37.67616 | 144.84599 | 375 ft | 4 kts | 92° |
| 2026-05-01 10:19 | -37.67611 | 144.84568 | 375 ft | 4 kts | 137° |
| 2026-05-01 10:20 | -37.67603 | 144.84561 | 375 ft | 1 kts | 171° |
| 2026-05-01 10:24 | -37.67606 | 144.84561 | 375 ft | 2 kts | 171° |
| 2026-05-01 10:25 | -37.67701 | 144.84579 | 371 ft | 10 kts | 172° |
| 2026-05-01 10:25 | -37.67822 | 144.84548 | 365 ft | 10 kts | 261° |
| 2026-05-01 10:26 | -37.67832 | 144.84458 | 365 ft | 11 kts | 261° |
| 2026-05-01 10:26 | -37.67844 | 144.84354 | 366 ft | 13 kts | 261° |
| 2026-05-01 10:26 | -37.67873 | 144.84117 | 364 ft | 1 kts | 262° |
| 2026-05-01 10:29 | -37.67873 | 144.84116 | 364 ft | 0 kts | 262° |
| 2026-05-01 10:32 | -37.67878 | 144.84073 | 357 ft | 8 kts | 262° |
| 2026-05-01 10:32 | -37.67862 | 144.83976 | 360 ft | 13 kts | 311° |
| 2026-05-01 10:32 | -37.67805 | 144.83954 | 363 ft | 0 kts | 352° |
| 2026-05-01 10:34 | -37.67776 | 144.83949 | 365 ft | 17 kts | 353° |
| 2026-05-01 10:34 | -37.67467 | 144.83893 | 368 ft | 78 kts | 352° |
| 2026-05-01 10:35 | -37.65722 | 144.83573 | 622 ft | 153 kts | 354° |
| 2026-05-01 10:35 | -37.64675 | 144.83377 | 1196 ft | 152 kts | 353° |
| 2026-05-01 10:35 | -37.63634 | 144.83173 | 1749 ft | 151 kts | 354° |
| 2026-05-01 10:35 | -37.62586 | 144.82968 | 2203 ft | 159 kts | 354° |
| 2026-05-01 10:36 | -37.60078 | 144.82494 | 2737 ft | 206 kts | 355° |
| 2026-05-01 10:36 | -37.58579 | 144.82648 | 3131 ft | 230 kts | 18° |
| 2026-05-01 10:36 | -37.57073 | 144.83505 | 3809 ft | 242 kts | 24° |
| 2026-05-01 10:37 | -37.55544 | 144.84439 | 4616 ft | 248 kts | 24° |
| 2026-05-01 10:37 | -37.52414 | 144.86349 | 4990 ft | 249 kts | 23° |
| 2026-05-01 10:37 | -37.50857 | 144.87295 | 5010 ft | 249 kts | 23° |
| 2026-05-01 10:38 | -37.49297 | 144.88242 | 5073 ft | 249 kts | 23° |
| 2026-05-01 10:38 | -37.47717 | 144.89202 | 5849 ft | 253 kts | 22° |
| 2026-05-01 10:38 | -37.46120 | 144.90169 | 6745 ft | 257 kts | 22° |
| 2026-05-01 10:38 | -37.44508 | 144.91209 | 7543 ft | 264 kts | 29° |
| 2026-05-01 10:39 | -37.43086 | 144.92724 | 8329 ft | 274 kts | 45° |
| 2026-05-01 10:39 | -37.41935 | 144.94686 | 9118 ft | 281 kts | 51° |
| 2026-05-01 10:39 | -37.40801 | 144.96717 | 9913 ft | 286 kts | 51° |
| 2026-05-01 10:39 | -37.39632 | 144.98796 | 10425 ft | 301 kts | 51° |
| 2026-05-01 10:40 | -37.38370 | 145.01027 | 10629 ft | 324 kts | 51° |
| 2026-05-01 10:40 | -37.37039 | 145.03379 | 11100 ft | 335 kts | 51° |
| 2026-05-01 10:40 | -37.35697 | 145.05749 | 11750 ft | 340 kts | 51° |
| 2026-05-01 10:40 | -37.34297 | 145.08220 | 12457 ft | 343 kts | 52° |
| 2026-05-01 10:41 | -37.32923 | 145.10646 | 13141 ft | 347 kts | 52° |
| 2026-05-01 10:41 | -37.31514 | 145.13136 | 13818 ft | 352 kts | 52° |
| 2026-05-01 10:41 | -37.28647 | 145.18201 | 15051 ft | 358 kts | 52° |
| 2026-05-01 10:42 | -37.27196 | 145.20758 | 15671 ft | 361 kts | 52° |
| 2026-05-01 10:42 | -37.25735 | 145.23334 | 16275 ft | 364 kts | 51° |
| 2026-05-01 10:42 | -37.24258 | 145.25939 | 16894 ft | 367 kts | 51° |
| 2026-05-01 10:42 | -37.22772 | 145.28556 | 17499 ft | 370 kts | 51° |
| 2026-05-01 10:43 | -37.21268 | 145.31198 | 18105 ft | 373 kts | 51° |
| 2026-05-01 10:43 | -37.19744 | 145.33867 | 18698 ft | 376 kts | 51° |
| 2026-05-01 10:43 | -37.18208 | 145.36551 | 19239 ft | 380 kts | 51° |
| 2026-05-01 10:43 | -37.16680 | 145.39222 | 19772 ft | 383 kts | 51° |
| 2026-05-01 10:44 | -37.15120 | 145.41951 | 20322 ft | 386 kts | 51° |
| 2026-05-01 10:44 | -37.13548 | 145.44699 | 20858 ft | 390 kts | 51° |
| 2026-05-01 10:44 | -37.11958 | 145.47471 | 21384 ft | 393 kts | 51° |
| 2026-05-01 10:44 | -37.10355 | 145.50264 | 21915 ft | 396 kts | 51° |
| 2026-05-01 10:45 | -37.08741 | 145.53072 | 22437 ft | 399 kts | 51° |
| 2026-05-01 10:45 | -37.07108 | 145.55911 | 22940 ft | 403 kts | 51° |
| 2026-05-01 10:45 | -37.05466 | 145.58766 | 23432 ft | 406 kts | 51° |
| 2026-05-01 10:45 | -37.03806 | 145.61651 | 23916 ft | 409 kts | 51° |
| 2026-05-01 10:46 | -37.02133 | 145.64551 | 24325 ft | 412 kts | 51° |
| 2026-05-01 10:46 | -37.00448 | 145.67471 | 24727 ft | 415 kts | 51° |
| 2026-05-01 10:46 | -36.98753 | 145.70412 | 25132 ft | 418 kts | 51° |
| 2026-05-01 10:46 | -36.97072 | 145.73326 | 25525 ft | 420 kts | 51° |
| 2026-05-01 10:47 | -36.95355 | 145.76299 | 25920 ft | 423 kts | 51° |
| 2026-05-01 10:47 | -36.93626 | 145.79286 | 26301 ft | 425 kts | 51° |
| 2026-05-01 10:47 | -36.91885 | 145.82286 | 26676 ft | 428 kts | 51° |
| 2026-05-01 10:47 | -36.90132 | 145.85301 | 27049 ft | 430 kts | 50° |
| 2026-05-01 10:48 | -36.88370 | 145.88333 | 27416 ft | 433 kts | 51° |
| 2026-05-01 10:48 | -36.86599 | 145.91386 | 27776 ft | 435 kts | 51° |
| 2026-05-01 10:48 | -36.84821 | 145.94453 | 28142 ft | 438 kts | 51° |
| 2026-05-01 10:48 | -36.83022 | 145.97546 | 28520 ft | 440 kts | 50° |
| 2026-05-01 10:49 | -36.81215 | 146.00646 | 28882 ft | 442 kts | 51° |
| 2026-05-01 10:49 | -36.79402 | 146.03754 | 29230 ft | 445 kts | 51° |
| 2026-05-01 10:49 | -36.77574 | 146.06886 | 29595 ft | 447 kts | 51° |
| 2026-05-01 10:49 | -36.75742 | 146.10028 | 29948 ft | 449 kts | 51° |
| 2026-05-01 10:50 | -36.73901 | 146.13183 | 30289 ft | 452 kts | 51° |
| 2026-05-01 10:50 | -36.72039 | 146.16369 | 30590 ft | 454 kts | 51° |
| 2026-05-01 10:50 | -36.70173 | 146.19554 | 30874 ft | 456 kts | 51° |
| 2026-05-01 10:50 | -36.68303 | 146.22736 | 31287 ft | 455 kts | 50° |
| 2026-05-01 10:51 | -36.66436 | 146.25912 | 31710 ft | 453 kts | 50° |
| 2026-05-01 10:51 | -36.64581 | 146.29073 | 32125 ft | 452 kts | 50° |
| 2026-05-01 10:51 | -36.62729 | 146.32234 | 32543 ft | 451 kts | 50° |
| 2026-05-01 10:51 | -36.60879 | 146.35388 | 32954 ft | 450 kts | 50° |
| 2026-05-01 10:52 | -36.59049 | 146.38494 | 33364 ft | 449 kts | 50° |
| 2026-05-01 10:52 | -36.57202 | 146.41625 | 33784 ft | 449 kts | 50° |
| 2026-05-01 10:52 | -36.55356 | 146.44751 | 34205 ft | 448 kts | 50° |
| 2026-05-01 10:52 | -36.53515 | 146.47867 | 34582 ft | 447 kts | 50° |
| 2026-05-01 10:53 | -36.51676 | 146.50974 | 34920 ft | 446 kts | 50° |
| 2026-05-01 10:53 | -36.49833 | 146.54084 | 35218 ft | 447 kts | 50° |
| 2026-05-01 10:53 | -36.47989 | 146.57196 | 35292 ft | 447 kts | 50° |
| 2026-05-01 10:54 | -36.44295 | 146.63425 | 35306 ft | 448 kts | 50° |
| 2026-05-01 10:54 | -36.40596 | 146.69657 | 35313 ft | 448 kts | 50° |
| 2026-05-01 10:55 | -36.36891 | 146.75888 | 35312 ft | 448 kts | 50° |
| 2026-05-01 10:55 | -36.33179 | 146.82111 | 35316 ft | 449 kts | 50° |
| 2026-05-01 10:56 | -36.29463 | 146.88331 | 35313 ft | 449 kts | 50° |
| 2026-05-01 10:56 | -36.25734 | 146.94572 | 35319 ft | 449 kts | 50° |
| 2026-05-01 10:57 | -36.22003 | 147.00786 | 35326 ft | 450 kts | 50° |
| 2026-05-01 10:57 | -36.18268 | 147.06998 | 35329 ft | 450 kts | 50° |
| 2026-05-01 10:58 | -36.14537 | 147.13209 | 35331 ft | 449 kts | 50° |
| 2026-05-01 10:58 | -36.10835 | 147.19365 | 35335 ft | 449 kts | 50° |
| 2026-05-01 10:59 | -36.07094 | 147.25542 | 35337 ft | 448 kts | 50° |
| 2026-05-01 10:59 | -36.03348 | 147.31724 | 35345 ft | 448 kts | 50° |
| 2026-05-01 11:00 | -35.99615 | 147.37888 | 35348 ft | 448 kts | 50° |
| 2026-05-01 11:00 | -35.95879 | 147.44034 | 35349 ft | 448 kts | 50° |
| 2026-05-01 11:01 | -35.92136 | 147.50180 | 35351 ft | 448 kts | 50° |
| 2026-05-01 11:01 | -35.88393 | 147.56322 | 35355 ft | 447 kts | 50° |
| 2026-05-01 11:02 | -35.84653 | 147.62450 | 35355 ft | 447 kts | 50° |
| 2026-05-01 11:02 | -35.80910 | 147.68577 | 35357 ft | 447 kts | 51° |
| 2026-05-01 11:03 | -35.77187 | 147.74669 | 35365 ft | 448 kts | 50° |
| 2026-05-01 11:03 | -35.73430 | 147.80781 | 35362 ft | 448 kts | 50° |
| 2026-05-01 11:04 | -35.69670 | 147.86895 | 35365 ft | 448 kts | 50° |
| 2026-05-01 11:04 | -35.65909 | 147.93004 | 35360 ft | 448 kts | 51° |
| 2026-05-01 11:05 | -35.62150 | 147.99104 | 35362 ft | 448 kts | 51° |
| 2026-05-01 11:05 | -35.58376 | 148.05202 | 35368 ft | 448 kts | 51° |
| 2026-05-01 11:06 | -35.54601 | 148.11297 | 35368 ft | 448 kts | 51° |
| 2026-05-01 11:06 | -35.50822 | 148.17393 | 35375 ft | 449 kts | 51° |
| 2026-05-01 11:07 | -35.45134 | 148.26543 | 35380 ft | 450 kts | 51° |
| 2026-05-01 11:07 | -35.41358 | 148.32604 | 35384 ft | 450 kts | 51° |
| 2026-05-01 11:08 | -35.37553 | 148.38704 | 35389 ft | 450 kts | 51° |
| 2026-05-01 11:09 | -35.31833 | 148.47847 | 35387 ft | 451 kts | 51° |
| 2026-05-01 11:09 | -35.28009 | 148.53937 | 35383 ft | 451 kts | 51° |
| 2026-05-01 11:10 | -35.22259 | 148.63079 | 35385 ft | 452 kts | 51° |
| 2026-05-01 11:10 | -35.19076 | 148.68149 | 35383 ft | 452 kts | 51° |
| 2026-05-01 11:11 | -35.15240 | 148.74251 | 35387 ft | 453 kts | 51° |
| 2026-05-01 11:11 | -35.10761 | 148.81340 | 35386 ft | 453 kts | 51° |
| 2026-05-01 11:12 | -35.07545 | 148.86409 | 35389 ft | 454 kts | 51° |
| 2026-05-01 11:12 | -35.03678 | 148.92500 | 35390 ft | 454 kts | 51° |
| 2026-05-01 11:13 | -34.99817 | 148.98592 | 35386 ft | 454 kts | 51° |
| 2026-05-01 11:13 | -34.95943 | 149.04698 | 35382 ft | 454 kts | 51° |
| 2026-05-01 11:14 | -34.94004 | 149.07744 | 35204 ft | 455 kts | 51° |
| 2026-05-01 11:14 | -34.92067 | 149.10786 | 34962 ft | 455 kts | 51° |
| 2026-05-01 11:14 | -34.90127 | 149.13834 | 34728 ft | 454 kts | 51° |
| 2026-05-01 11:14 | -34.88188 | 149.16870 | 34493 ft | 454 kts | 51° |
| 2026-05-01 11:15 | -34.86244 | 149.19907 | 34212 ft | 454 kts | 51° |
| 2026-05-01 11:15 | -34.84305 | 149.22931 | 33802 ft | 451 kts | 51° |
| 2026-05-01 11:15 | -34.82378 | 149.25937 | 33408 ft | 449 kts | 51° |
| 2026-05-01 11:15 | -34.80465 | 149.28920 | 32947 ft | 446 kts | 51° |
| 2026-05-01 11:16 | -34.78561 | 149.31884 | 32435 ft | 443 kts | 52° |
| 2026-05-01 11:16 | -34.76670 | 149.34829 | 31940 ft | 440 kts | 51° |
| 2026-05-01 11:16 | -34.74799 | 149.37750 | 31450 ft | 437 kts | 53° |
| 2026-05-01 11:16 | -34.73177 | 149.40857 | 30964 ft | 434 kts | 62° |
| 2026-05-01 11:17 | -34.71780 | 149.44092 | 30493 ft | 431 kts | 62° |
| 2026-05-01 11:17 | -34.70406 | 149.47261 | 29954 ft | 428 kts | 62° |
| 2026-05-01 11:17 | -34.69017 | 149.50455 | 29409 ft | 426 kts | 62° |
| 2026-05-01 11:17 | -34.67636 | 149.53619 | 28871 ft | 423 kts | 62° |
| 2026-05-01 11:18 | -34.66260 | 149.56763 | 28346 ft | 420 kts | 62° |
| 2026-05-01 11:18 | -34.64873 | 149.59927 | 27829 ft | 418 kts | 61° |
| 2026-05-01 11:18 | -34.63510 | 149.63034 | 27322 ft | 416 kts | 61° |
| 2026-05-01 11:18 | -34.62155 | 149.66120 | 26818 ft | 413 kts | 61° |
| 2026-05-01 11:19 | -34.60807 | 149.69196 | 26333 ft | 410 kts | 61° |
| 2026-05-01 11:19 | -34.59496 | 149.72190 | 25859 ft | 406 kts | 61° |
| 2026-05-01 11:19 | -34.58173 | 149.75204 | 25386 ft | 403 kts | 61° |
| 2026-05-01 11:19 | -34.56858 | 149.78194 | 24920 ft | 400 kts | 61° |
| 2026-05-01 11:20 | -34.55551 | 149.81159 | 24463 ft | 397 kts | 61° |
| 2026-05-01 11:20 | -34.54252 | 149.84105 | 24014 ft | 395 kts | 61° |
| 2026-05-01 11:20 | -34.52961 | 149.87032 | 23485 ft | 392 kts | 61° |
| 2026-05-01 11:20 | -34.51681 | 149.89936 | 22955 ft | 388 kts | 61° |
| 2026-05-01 11:21 | -34.50421 | 149.92799 | 22434 ft | 381 kts | 61° |
| 2026-05-01 11:21 | -34.49183 | 149.95612 | 21918 ft | 374 kts | 61° |
| 2026-05-01 11:21 | -34.47965 | 149.98369 | 21418 ft | 368 kts | 61° |
| 2026-05-01 11:21 | -34.46773 | 150.01059 | 20934 ft | 366 kts | 61° |
| 2026-05-01 11:22 | -34.45568 | 150.03768 | 20447 ft | 365 kts | 61° |
| 2026-05-01 11:22 | -34.44363 | 150.06475 | 19973 ft | 364 kts | 61° |
| 2026-05-01 11:22 | -34.43164 | 150.09173 | 19506 ft | 363 kts | 61° |
| 2026-05-01 11:22 | -34.41969 | 150.11865 | 19048 ft | 362 kts | 61° |
| 2026-05-01 11:23 | -34.40779 | 150.14545 | 18568 ft | 361 kts | 61° |
| 2026-05-01 11:23 | -34.39594 | 150.17215 | 18058 ft | 357 kts | 61° |
| 2026-05-01 11:23 | -34.38426 | 150.19850 | 17526 ft | 352 kts | 61° |
| 2026-05-01 11:23 | -34.37275 | 150.22441 | 17018 ft | 347 kts | 61° |
| 2026-05-01 11:24 | -34.36138 | 150.24992 | 16519 ft | 342 kts | 61° |
| 2026-05-01 11:24 | -34.35015 | 150.27508 | 16020 ft | 338 kts | 60° |
| 2026-05-01 11:24 | -34.32827 | 150.32405 | 15066 ft | 328 kts | 60° |
| 2026-05-01 11:25 | -34.31749 | 150.34818 | 14603 ft | 324 kts | 60° |
| 2026-05-01 11:25 | -34.29626 | 150.39554 | 13611 ft | 317 kts | 60° |
| 2026-05-01 11:25 | -34.28580 | 150.41886 | 13095 ft | 314 kts | 61° |
| 2026-05-01 11:26 | -34.27548 | 150.44194 | 12593 ft | 311 kts | 61° |
| 2026-05-01 11:26 | -34.25512 | 150.48754 | 11605 ft | 305 kts | 61° |
| 2026-05-01 11:26 | -34.24506 | 150.51006 | 11120 ft | 303 kts | 61° |
| 2026-05-01 11:27 | -34.23512 | 150.53232 | 10641 ft | 300 kts | 61° |
| 2026-05-01 11:27 | -34.22526 | 150.55443 | 10167 ft | 297 kts | 61° |
| 2026-05-01 11:27 | -34.21546 | 150.57632 | 9647 ft | 295 kts | 61° |
| 2026-05-01 11:27 | -34.20571 | 150.59802 | 9135 ft | 293 kts | 61° |
| 2026-05-01 11:28 | -34.19593 | 150.61977 | 8661 ft | 295 kts | 61° |
| 2026-05-01 11:28 | -34.18618 | 150.64146 | 8292 ft | 293 kts | 60° |
| 2026-05-01 11:28 | -34.17653 | 150.66291 | 8039 ft | 287 kts | 60° |
| 2026-05-01 11:29 | -34.15826 | 150.70353 | 7788 ft | 271 kts | 60° |
| 2026-05-01 11:29 | -34.14929 | 150.72348 | 7669 ft | 269 kts | 60° |
| 2026-05-01 11:29 | -34.13148 | 150.76320 | 7422 ft | 268 kts | 60° |
| 2026-05-01 11:30 | -34.12256 | 150.78296 | 7299 ft | 268 kts | 60° |
| 2026-05-01 11:30 | -34.11366 | 150.80266 | 7183 ft | 267 kts | 60° |
| 2026-05-01 11:30 | -34.10478 | 150.82231 | 7062 ft | 267 kts | 60° |
| 2026-05-01 11:30 | -34.09590 | 150.84198 | 6936 ft | 266 kts | 60° |
| 2026-05-01 11:31 | -34.08707 | 150.86158 | 6817 ft | 266 kts | 60° |
| 2026-05-01 11:31 | -34.07826 | 150.88117 | 6690 ft | 265 kts | 60° |
| 2026-05-01 11:31 | -34.06948 | 150.90069 | 6560 ft | 265 kts | 61° |
| 2026-05-01 11:31 | -34.06366 | 150.91361 | 6474 ft | 265 kts | 60° |
| 2026-05-01 11:32 | -34.06149 | 150.91848 | 6439 ft | 264 kts | 61° |
| 2026-05-01 11:32 | -34.05284 | 150.93806 | 6309 ft | 264 kts | 60° |
| 2026-05-01 11:32 | -34.04407 | 150.95752 | 6181 ft | 263 kts | 60° |
| 2026-05-01 11:32 | -34.03605 | 150.97734 | 6063 ft | 264 kts | 71° |
| 2026-05-01 11:33 | -34.03369 | 150.99924 | 6006 ft | 266 kts | 93° |
| 2026-05-01 11:33 | -34.03842 | 151.02086 | 6010 ft | 271 kts | 115° |
| 2026-05-01 11:33 | -34.04969 | 151.03914 | 6015 ft | 274 kts | 132° |
| 2026-05-01 11:33 | -34.06293 | 151.05576 | 5864 ft | 274 kts | 131° |
| 2026-05-01 11:34 | -34.07729 | 151.07074 | 5606 ft | 275 kts | 145° |
| 2026-05-01 11:34 | -34.09453 | 151.08064 | 5313 ft | 275 kts | 161° |
| 2026-05-01 11:34 | -34.11320 | 151.08584 | 5009 ft | 275 kts | 166° |
| 2026-05-01 11:34 | -34.13187 | 151.09062 | 4702 ft | 273 kts | 166° |
| 2026-05-01 11:35 | -34.15041 | 151.09543 | 4401 ft | 272 kts | 166° |
| 2026-05-01 11:35 | -34.16892 | 151.10020 | 4105 ft | 272 kts | 166° |
| 2026-05-01 11:35 | -34.18735 | 151.10498 | 3801 ft | 271 kts | 166° |
| 2026-05-01 11:35 | -34.20552 | 151.11059 | 3505 ft | 269 kts | 163° |
| 2026-05-01 11:36 | -34.22361 | 151.11605 | 3200 ft | 267 kts | 164° |
| 2026-05-01 11:36 | -34.24144 | 151.12139 | 3019 ft | 260 kts | 163° |
| 2026-05-01 11:36 | -34.25851 | 151.12647 | 2999 ft | 245 kts | 163° |
| 2026-05-01 11:36 | -34.27335 | 151.13442 | 3008 ft | 224 kts | 140° |
| 2026-05-01 11:37 | -34.28350 | 151.14746 | 3007 ft | 214 kts | 117° |
| 2026-05-01 11:37 | -34.28859 | 151.16419 | 3012 ft | 208 kts | 94° |
| 2026-05-01 11:37 | -34.28810 | 151.18117 | 2900 ft | 200 kts | 73° |
| 2026-05-01 11:37 | -34.28282 | 151.19608 | 2773 ft | 188 kts | 54° |
| 2026-05-01 11:38 | -34.27412 | 151.20720 | 2648 ft | 180 kts | 35° |
| 2026-05-01 11:38 | -34.26318 | 151.21414 | 2397 ft | 178 kts | 18° |
| 2026-05-01 11:38 | -34.25181 | 151.21869 | 2299 ft | 167 kts | 20° |
| 2026-05-01 11:38 | -34.24108 | 151.22308 | 2172 ft | 160 kts | 19° |
| 2026-05-01 11:39 | -34.23069 | 151.22737 | 2078 ft | 157 kts | 19° |
| 2026-05-01 11:39 | -34.22040 | 151.23161 | 2015 ft | 156 kts | 19° |
| 2026-05-01 11:39 | -34.21013 | 151.23584 | 2012 ft | 156 kts | 20° |
| 2026-05-01 11:39 | -34.19984 | 151.24007 | 2006 ft | 156 kts | 21° |
| 2026-05-01 11:40 | -34.18917 | 151.24430 | 2019 ft | 172 kts | 16° |
| 2026-05-01 11:40 | -34.17697 | 151.24622 | 2004 ft | 181 kts | 2° |
| 2026-05-01 11:40 | -34.16434 | 151.24418 | 2005 ft | 185 kts | 352° |
| 2026-05-01 11:40 | -34.15176 | 151.24094 | 2011 ft | 185 kts | 350° |
| 2026-05-01 11:41 | -34.13917 | 151.23765 | 2011 ft | 185 kts | 350° |
| 2026-05-01 11:41 | -34.12658 | 151.23437 | 2018 ft | 185 kts | 351° |
| 2026-05-01 11:41 | -34.11397 | 151.23108 | 2008 ft | 185 kts | 350° |
| 2026-05-01 11:41 | -34.10131 | 151.22778 | 2010 ft | 186 kts | 350° |
| 2026-05-01 11:42 | -34.08864 | 151.22448 | 2023 ft | 186 kts | 351° |
| 2026-05-01 11:42 | -34.07657 | 151.22131 | 1998 ft | 169 kts | 351° |
| 2026-05-01 11:42 | -34.06574 | 151.21831 | 1920 ft | 152 kts | 350° |
| 2026-05-01 11:42 | -34.05581 | 151.21556 | 1750 ft | 140 kts | 351° |
| 2026-05-01 11:43 | -34.04651 | 151.21301 | 1688 ft | 138 kts | 351° |
| 2026-05-01 11:43 | -34.03714 | 151.21067 | 1590 ft | 137 kts | 352° |
| 2026-05-01 11:43 | -34.02781 | 151.20836 | 1390 ft | 136 kts | 352° |
| 2026-05-01 11:44 | -34.00934 | 151.20367 | 761 ft | 134 kts | 352° |
| 2026-05-01 11:44 | -34.00014 | 151.20145 | 700 ft | 136 kts | 349° |
| 2026-05-01 11:44 | -33.99078 | 151.19896 | 546 ft | 139 kts | 348° |
| 2026-05-01 11:44 | -33.98127 | 151.19659 | 317 ft | 140 kts | 347° |
| 2026-05-01 11:45 | -33.97168 | 151.19405 | 116 ft | 142 kts | 345° |
| 2026-05-01 11:45 | -33.96243 | 151.19158 | 26 ft | 118 kts | 348° |
| 2026-05-01 11:45 | -33.95605 | 151.18993 | 25 ft | 70 kts | 348° |
| 2026-05-01 11:45 | -33.95203 | 151.18889 | 24 ft | 39 kts | 349° |
| 2026-05-01 11:46 | -33.95078 | 151.18845 | 24 ft | 11 kts | 322° |
| 2026-05-01 11:46 | -33.95054 | 151.18778 | 26 ft | 0 kts | 271° |
| 2026-05-01 11:46 | -33.95055 | 151.18762 | 27 ft | 6 kts | 262° |
| 2026-05-01 11:46 | -33.95068 | 151.18692 | 29 ft | 9 kts | 257° |
| 2026-05-01 11:47 | -33.95083 | 151.18608 | 30 ft | 11 kts | 257° |
| 2026-05-01 11:47 | -33.95102 | 151.18503 | 30 ft | 14 kts | 257° |
| 2026-05-01 11:47 | -33.95126 | 151.18374 | 30 ft | 15 kts | 257° |
| 2026-05-01 11:47 | -33.95146 | 151.18260 | 30 ft | 12 kts | 258° |
| 2026-05-01 11:48 | -33.95160 | 151.18184 | 30 ft | 0 kts | 258° |
| 2026-05-01 11:50 | -33.95160 | 151.18180 | 30 ft | 2 kts | 258° |
| 2026-05-01 11:50 | -33.95165 | 151.18154 | 30 ft | 5 kts | 257° |
| 2026-05-01 11:51 | -33.95174 | 151.18104 | 30 ft | 8 kts | 257° |
| 2026-05-01 11:51 | -33.95188 | 151.18030 | 30 ft | 11 kts | 259° |
| 2026-05-01 11:51 | -33.95145 | 151.17954 | 30 ft | 13 kts | 347° |
| 2026-05-01 11:51 | -33.95061 | 151.17934 | 30 ft | 8 kts | 348° |
| 2026-05-01 11:52 | -33.94995 | 151.17916 | 30 ft | 11 kts | 347° |
| 2026-05-01 11:52 | -33.94909 | 151.17893 | 30 ft | 14 kts | 347° |
| 2026-05-01 11:52 | -33.94803 | 151.17866 | 30 ft | 17 kts | 347° |
| 2026-05-01 11:52 | -33.94677 | 151.17834 | 30 ft | 20 kts | 348° |
| 2026-05-01 11:53 | -33.94550 | 151.17800 | 30 ft | 18 kts | 347° |
| 2026-05-01 11:53 | -33.94439 | 151.17768 | 30 ft | 17 kts | 346° |
| 2026-05-01 11:53 | -33.94332 | 151.17735 | 30 ft | 17 kts | 345° |
| 2026-05-01 11:53 | -33.94208 | 151.17695 | 29 ft | 20 kts | 345° |
| 2026-05-01 11:54 | -33.94061 | 151.17653 | 28 ft | 23 kts | 347° |
| 2026-05-01 11:54 | -33.93898 | 151.17610 | 29 ft | 23 kts | 347° |
| 2026-05-01 11:54 | -33.93750 | 151.17572 | 29 ft | 22 kts | 349° |
| 2026-05-01 11:54 | -33.93619 | 151.17538 | 29 ft | 16 kts | 347° |
| 2026-05-01 11:55 | -33.93514 | 151.17510 | 29 ft | 11 kts | 347° |
| 2026-05-01 11:55 | -33.93463 | 151.17528 | 30 ft | 4 kts | 60° |
| 2026-05-01 11:55 | -33.93464 | 151.17563 | 30 ft | 3 kts | 105° |
| 2026-05-01 11:55 | -33.93470 | 151.17574 | 30 ft | 0 kts | 128° |
| 2026-05-01 11:56 | -33.93485 | 151.17585 | 30 ft | 4 kts | 157° |
| 2026-05-01 11:56 | -33.93524 | 151.17595 | 30 ft | 7 kts | 168° |
| 2026-05-01 11:56 | -33.93551 | 151.17627 | 30 ft | 6 kts | 97° |
| 2026-05-01 11:57 | -33.93555 | 151.17661 | 30 ft | 3 kts | 100° |
| 2026-05-01 11:57 | -33.93556 | 151.17665 | 30 ft | 1 kts | 100° |
| 2026-05-01 11:57 | -33.93559 | 151.17684 | 30 ft | 2 kts | 101° |
| 2026-05-01 11:57 | -33.93559 | 151.17687 | 30 ft | 0 kts | 101° |